sensor_id;sensor_type;location;lat;lon;timestamp;P1;durP1;ratioP1;P2;durP2;ratioP2
12947;SDS011;6539;49.476;8.484;2023-03-21T00:00:57;4.40;;;3.30;;
12947;SDS011;6539;49.476;8.484;2023-03-21T00:03:28;6.93;;;3.63;;
12947;SDS011;6539;49.476;8.484;2023-03-21T00:05:59;4.60;;;3.23;;
12947;SDS011;6539;49.476;8.484;2023-03-21T00:08:38;7.10;;;3.23;;
12947;SDS011;6539;49.476;8.484;2023-03-21T00:11:05;4.20;;;3.27;;
12947;SDS011;6539;49.476;8.484;2023-03-21T00:13:37;6.70;;;3.57;;
12947;SDS011;6539;49.476;8.484;2023-03-21T00:16:12;8.10;;;4.10;;
12947;SDS011;6539;49.476;8.484;2023-03-21T00:18:44;5.73;;;3.47;;
12947;SDS011;6539;49.476;8.484;2023-03-21T00:21:20;7.70;;;4.07;;
12947;SDS011;6539;49.476;8.484;2023-03-21T00:23:52;6.03;;;3.73;;
12947;SDS011;6539;49.476;8.484;2023-03-21T00:26:20;5.93;;;3.73;;
12947;SDS011;6539;49.476;8.484;2023-03-21T00:28:46;8.67;;;3.83;;
12947;SDS011;6539;49.476;8.484;2023-03-21T00:31:15;7.10;;;3.80;;
12947;SDS011;6539;49.476;8.484;2023-03-21T00:33:42;4.27;;;3.03;;
12947;SDS011;6539;49.476;8.484;2023-03-21T00:36:11;4.60;;;3.30;;
12947;SDS011;6539;49.476;8.484;2023-03-21T00:38:37;7.90;;;3.77;;
12947;SDS011;6539;49.476;8.484;2023-03-21T00:41:04;5.23;;;3.40;;
12947;SDS011;6539;49.476;8.484;2023-03-21T00:43:35;6.17;;;3.40;;
12947;SDS011;6539;49.476;8.484;2023-03-21T00:46:05;7.83;;;3.60;;
12947;SDS011;6539;49.476;8.484;2023-03-21T00:48:31;9.03;;;3.63;;
12947;SDS011;6539;49.476;8.484;2023-03-21T00:50:57;5.27;;;3.20;;
12947;SDS011;6539;49.476;8.484;2023-03-21T00:53:24;4.90;;;3.27;;
12947;SDS011;6539;49.476;8.484;2023-03-21T00:55:56;4.30;;;2.70;;
12947;SDS011;6539;49.476;8.484;2023-03-21T00:58:24;5.77;;;3.20;;
12947;SDS011;6539;49.476;8.484;2023-03-21T01:00:50;4.93;;;3.50;;
12947;SDS011;6539;49.476;8.484;2023-03-21T01:03:15;5.43;;;3.47;;
12947;SDS011;6539;49.476;8.484;2023-03-21T01:05:45;3.97;;;2.97;;
12947;SDS011;6539;49.476;8.484;2023-03-21T01:08:28;9.63;;;3.77;;
12947;SDS011;6539;49.476;8.484;2023-03-21T01:11:18;7.73;;;3.77;;
12947;SDS011;6539;49.476;8.484;2023-03-21T01:13:49;4.47;;;3.67;;
12947;SDS011;6539;49.476;8.484;2023-03-21T01:16:17;5.20;;;3.60;;
12947;SDS011;6539;49.476;8.484;2023-03-21T01:18:45;7.70;;;3.80;;
12947;SDS011;6539;49.476;8.484;2023-03-21T01:21:12;4.90;;;3.83;;
12947;SDS011;6539;49.476;8.484;2023-03-21T01:23:39;5.50;;;3.70;;
12947;SDS011;6539;49.476;8.484;2023-03-21T01:26:12;5.37;;;3.33;;
12947;SDS011;6539;49.476;8.484;2023-03-21T01:28:43;7.90;;;3.90;;
12947;SDS011;6539;49.476;8.484;2023-03-21T01:31:11;4.77;;;3.40;;
12947;SDS011;6539;49.476;8.484;2023-03-21T01:33:40;4.43;;;3.13;;
12947;SDS011;6539;49.476;8.484;2023-03-21T01:36:07;5.93;;;3.07;;
12947;SDS011;6539;49.476;8.484;2023-03-21T01:38:43;4.77;;;3.47;;
12947;SDS011;6539;49.476;8.484;2023-03-21T01:44:02;4.77;;;3.40;;
12947;SDS011;6539;49.476;8.484;2023-03-21T01:46:45;4.33;;;3.37;;
12947;SDS011;6539;49.476;8.484;2023-03-21T01:49:21;6.27;;;3.30;;
12947;SDS011;6539;49.476;8.484;2023-03-21T01:51:57;7.43;;;3.67;;
12947;SDS011;6539;49.476;8.484;2023-03-21T01:54:32;5.37;;;3.37;;
12947;SDS011;6539;49.476;8.484;2023-03-21T01:57:09;4.20;;;3.20;;
12947;SDS011;6539;49.476;8.484;2023-03-21T01:59:48;4.63;;;3.47;;
12947;SDS011;6539;49.476;8.484;2023-03-21T02:02:24;9.13;;;3.93;;
12947;SDS011;6539;49.476;8.484;2023-03-21T02:04:57;8.90;;;3.63;;
12947;SDS011;6539;49.476;8.484;2023-03-21T02:07:33;6.47;;;3.70;;
12947;SDS011;6539;49.476;8.484;2023-03-21T02:10:02;5.97;;;3.83;;
12947;SDS011;6539;49.476;8.484;2023-03-21T02:12:33;8.40;;;3.53;;
12947;SDS011;6539;49.476;8.484;2023-03-21T02:14:59;6.80;;;4.10;;
12947;SDS011;6539;49.476;8.484;2023-03-21T02:17:42;6.63;;;3.53;;
12947;SDS011;6539;49.476;8.484;2023-03-21T02:35:20;6.07;;;3.73;;
12947;SDS011;6539;49.476;8.484;2023-03-21T02:38:22;6.80;;;3.23;;
12947;SDS011;6539;49.476;8.484;2023-03-21T02:41:16;4.77;;;3.10;;
12947;SDS011;6539;49.476;8.484;2023-03-21T02:47:02;4.90;;;3.43;;
12947;SDS011;6539;49.476;8.484;2023-03-21T02:52:36;6.07;;;3.00;;
12947;SDS011;6539;49.476;8.484;2023-03-21T02:55:16;4.60;;;3.03;;
12947;SDS011;6539;49.476;8.484;2023-03-21T02:57:48;5.57;;;3.30;;
12947;SDS011;6539;49.476;8.484;2023-03-21T03:00:24;8.33;;;4.00;;
12947;SDS011;6539;49.476;8.484;2023-03-21T03:02:56;6.73;;;4.30;;
12947;SDS011;6539;49.476;8.484;2023-03-21T03:05:24;7.93;;;4.13;;
12947;SDS011;6539;49.476;8.484;2023-03-21T03:16:46;5.60;;;4.03;;
12947;SDS011;6539;49.476;8.484;2023-03-21T03:22:47;8.07;;;3.87;;
12947;SDS011;6539;49.476;8.484;2023-03-21T03:26:02;5.43;;;3.53;;
12947;SDS011;6539;49.476;8.484;2023-03-21T03:28:45;4.20;;;3.20;;
12947;SDS011;6539;49.476;8.484;2023-03-21T03:31:21;6.57;;;3.73;;
12947;SDS011;6539;49.476;8.484;2023-03-21T03:33:56;6.30;;;3.40;;
12947;SDS011;6539;49.476;8.484;2023-03-21T03:36:32;6.10;;;3.40;;
12947;SDS011;6539;49.476;8.484;2023-03-21T03:39:05;5.20;;;3.40;;
12947;SDS011;6539;49.476;8.484;2023-03-21T03:41:55;5.37;;;2.93;;
12947;SDS011;6539;49.476;8.484;2023-03-21T03:44:34;6.10;;;3.23;;
12947;SDS011;6539;49.476;8.484;2023-03-21T03:47:04;8.40;;;3.20;;
12947;SDS011;6539;49.476;8.484;2023-03-21T03:52:40;5.47;;;3.53;;
12947;SDS011;6539;49.476;8.484;2023-03-21T03:55:15;6.20;;;3.60;;
12947;SDS011;6539;49.476;8.484;2023-03-21T03:57:46;5.87;;;3.50;;
12947;SDS011;6539;49.476;8.484;2023-03-21T04:00:13;4.90;;;3.57;;
12947;SDS011;6539;49.476;8.484;2023-03-21T04:02:44;6.23;;;3.20;;
12947;SDS011;6539;49.476;8.484;2023-03-21T04:05:15;7.93;;;3.60;;
12947;SDS011;6539;49.476;8.484;2023-03-21T04:07:45;6.37;;;4.10;;
12947;SDS011;6539;49.476;8.484;2023-03-21T04:10:14;7.33;;;3.43;;
12947;SDS011;6539;49.476;8.484;2023-03-21T04:12:43;6.93;;;3.60;;
12947;SDS011;6539;49.476;8.484;2023-03-21T04:15:09;7.87;;;4.13;;
12947;SDS011;6539;49.476;8.484;2023-03-21T04:17:36;7.10;;;3.83;;
12947;SDS011;6539;49.476;8.484;2023-03-21T04:20:04;5.73;;;3.33;;
12947;SDS011;6539;49.476;8.484;2023-03-21T04:22:32;6.83;;;3.50;;
12947;SDS011;6539;49.476;8.484;2023-03-21T04:25:01;5.07;;;3.00;;
12947;SDS011;6539;49.476;8.484;2023-03-21T04:27:28;6.50;;;3.40;;
12947;SDS011;6539;49.476;8.484;2023-03-21T04:29:54;6.53;;;3.30;;
12947;SDS011;6539;49.476;8.484;2023-03-21T04:32:20;4.90;;;3.50;;
12947;SDS011;6539;49.476;8.484;2023-03-21T04:34:48;7.60;;;3.60;;
12947;SDS011;6539;49.476;8.484;2023-03-21T04:37:20;6.57;;;3.60;;
12947;SDS011;6539;49.476;8.484;2023-03-21T04:39:48;6.33;;;3.70;;
12947;SDS011;6539;49.476;8.484;2023-03-21T04:42:19;7.50;;;4.20;;
12947;SDS011;6539;49.476;8.484;2023-03-21T04:44:45;7.80;;;4.70;;
12947;SDS011;6539;49.476;8.484;2023-03-21T04:47:13;8.70;;;4.33;;
12947;SDS011;6539;49.476;8.484;2023-03-21T04:49:44;6.10;;;4.00;;
12947;SDS011;6539;49.476;8.484;2023-03-21T04:52:13;9.33;;;4.70;;
12947;SDS011;6539;49.476;8.484;2023-03-21T04:54:40;7.70;;;3.60;;
12947;SDS011;6539;49.476;8.484;2023-03-21T04:57:06;6.67;;;4.10;;
12947;SDS011;6539;49.476;8.484;2023-03-21T04:59:32;4.87;;;3.67;;
12947;SDS011;6539;49.476;8.484;2023-03-21T05:01:59;9.23;;;4.27;;
12947;SDS011;6539;49.476;8.484;2023-03-21T05:04:32;8.90;;;4.90;;
12947;SDS011;6539;49.476;8.484;2023-03-21T05:07:00;6.50;;;4.30;;
12947;SDS011;6539;49.476;8.484;2023-03-21T05:09:31;10.27;;;4.20;;
12947;SDS011;6539;49.476;8.484;2023-03-21T05:11:59;7.33;;;4.03;;
12947;SDS011;6539;49.476;8.484;2023-03-21T05:14:25;9.27;;;3.67;;
12947;SDS011;6539;49.476;8.484;2023-03-21T05:16:51;5.03;;;3.23;;
12947;SDS011;6539;49.476;8.484;2023-03-21T05:19:20;7.27;;;3.57;;
12947;SDS011;6539;49.476;8.484;2023-03-21T05:21:49;5.27;;;3.17;;
12947;SDS011;6539;49.476;8.484;2023-03-21T05:24:17;10.30;;;4.30;;
12947;SDS011;6539;49.476;8.484;2023-03-21T05:26:46;4.07;;;3.00;;
12947;SDS011;6539;49.476;8.484;2023-03-21T05:29:17;4.77;;;3.53;;
12947;SDS011;6539;49.476;8.484;2023-03-21T05:31:46;9.17;;;3.43;;
12947;SDS011;6539;49.476;8.484;2023-03-21T05:34:14;7.07;;;3.70;;
12947;SDS011;6539;49.476;8.484;2023-03-21T05:36:40;6.90;;;3.83;;
12947;SDS011;6539;49.476;8.484;2023-03-21T05:39:07;7.47;;;3.40;;
12947;SDS011;6539;49.476;8.484;2023-03-21T05:41:33;5.20;;;3.60;;
12947;SDS011;6539;49.476;8.484;2023-03-21T05:43:59;6.60;;;3.80;;
12947;SDS011;6539;49.476;8.484;2023-03-21T05:46:25;7.80;;;4.00;;
12947;SDS011;6539;49.476;8.484;2023-03-21T05:48:50;5.00;;;3.43;;
12947;SDS011;6539;49.476;8.484;2023-03-21T05:51:19;5.93;;;3.97;;
12947;SDS011;6539;49.476;8.484;2023-03-21T05:53:45;6.33;;;4.00;;
12947;SDS011;6539;49.476;8.484;2023-03-21T05:56:11;6.17;;;3.73;;
12947;SDS011;6539;49.476;8.484;2023-03-21T05:58:39;6.90;;;3.97;;
12947;SDS011;6539;49.476;8.484;2023-03-21T06:01:05;6.37;;;3.77;;
12947;SDS011;6539;49.476;8.484;2023-03-21T06:03:31;7.60;;;4.33;;
12947;SDS011;6539;49.476;8.484;2023-03-21T06:05:57;8.23;;;4.53;;
12947;SDS011;6539;49.476;8.484;2023-03-21T06:08:27;7.80;;;4.63;;
12947;SDS011;6539;49.476;8.484;2023-03-21T06:10:56;6.37;;;4.00;;
12947;SDS011;6539;49.476;8.484;2023-03-21T06:13:26;4.03;;;3.33;;
12947;SDS011;6539;49.476;8.484;2023-03-21T06:15:55;7.50;;;4.60;;
12947;SDS011;6539;49.476;8.484;2023-03-21T06:18:23;7.53;;;3.90;;
12947;SDS011;6539;49.476;8.484;2023-03-21T06:20:49;8.67;;;4.40;;
12947;SDS011;6539;49.476;8.484;2023-03-21T06:23:18;6.90;;;3.37;;
12947;SDS011;6539;49.476;8.484;2023-03-21T06:25:44;8.00;;;4.20;;
12947;SDS011;6539;49.476;8.484;2023-03-21T06:28:13;7.20;;;4.23;;
12947;SDS011;6539;49.476;8.484;2023-03-21T06:30:38;5.53;;;4.33;;
12947;SDS011;6539;49.476;8.484;2023-03-21T06:33:04;8.10;;;5.23;;
12947;SDS011;6539;49.476;8.484;2023-03-21T06:35:30;6.60;;;4.63;;
12947;SDS011;6539;49.476;8.484;2023-03-21T06:37:56;8.00;;;5.37;;
12947;SDS011;6539;49.476;8.484;2023-03-21T06:40:23;12.50;;;5.23;;
12947;SDS011;6539;49.476;8.484;2023-03-21T06:42:48;7.27;;;4.90;;
12947;SDS011;6539;49.476;8.484;2023-03-21T06:45:19;6.87;;;4.70;;
12947;SDS011;6539;49.476;8.484;2023-03-21T06:47:45;5.87;;;4.43;;
12947;SDS011;6539;49.476;8.484;2023-03-21T06:50:15;7.97;;;5.20;;
12947;SDS011;6539;49.476;8.484;2023-03-21T06:52:43;7.77;;;5.10;;
12947;SDS011;6539;49.476;8.484;2023-03-21T06:55:09;10.23;;;5.23;;
12947;SDS011;6539;49.476;8.484;2023-03-21T06:57:35;7.90;;;5.20;;
12947;SDS011;6539;49.476;8.484;2023-03-21T07:00:04;6.97;;;4.97;;
12947;SDS011;6539;49.476;8.484;2023-03-21T07:02:34;8.67;;;4.77;;
12947;SDS011;6539;49.476;8.484;2023-03-21T07:05:00;7.70;;;4.97;;
12947;SDS011;6539;49.476;8.484;2023-03-21T07:07:26;8.93;;;6.20;;
12947;SDS011;6539;49.476;8.484;2023-03-21T07:09:53;9.03;;;5.33;;
12947;SDS011;6539;49.476;8.484;2023-03-21T07:12:20;7.23;;;4.83;;
12947;SDS011;6539;49.476;8.484;2023-03-21T07:14:49;7.33;;;4.67;;
12947;SDS011;6539;49.476;8.484;2023-03-21T07:17:15;5.60;;;4.20;;
12947;SDS011;6539;49.476;8.484;2023-03-21T07:19:41;7.57;;;4.40;;
12947;SDS011;6539;49.476;8.484;2023-03-21T07:22:06;7.50;;;4.73;;
12947;SDS011;6539;49.476;8.484;2023-03-21T07:24:35;6.47;;;4.43;;
12947;SDS011;6539;49.476;8.484;2023-03-21T07:27:03;7.20;;;4.37;;
12947;SDS011;6539;49.476;8.484;2023-03-21T07:29:31;5.00;;;4.47;;
12947;SDS011;6539;49.476;8.484;2023-03-21T07:31:59;6.40;;;4.50;;
12947;SDS011;6539;49.476;8.484;2023-03-21T07:34:25;6.77;;;4.80;;
12947;SDS011;6539;49.476;8.484;2023-03-21T07:37:01;6.80;;;4.40;;
12947;SDS011;6539;49.476;8.484;2023-03-21T07:39:31;8.20;;;4.70;;
12947;SDS011;6539;49.476;8.484;2023-03-21T07:41:58;7.20;;;4.60;;
12947;SDS011;6539;49.476;8.484;2023-03-21T07:44:25;9.67;;;5.17;;
12947;SDS011;6539;49.476;8.484;2023-03-21T07:46:54;6.30;;;4.30;;
12947;SDS011;6539;49.476;8.484;2023-03-21T07:49:23;6.37;;;4.90;;
12947;SDS011;6539;49.476;8.484;2023-03-21T07:51:48;6.23;;;4.50;;
12947;SDS011;6539;49.476;8.484;2023-03-21T07:54:17;7.43;;;4.60;;
12947;SDS011;6539;49.476;8.484;2023-03-21T07:56:46;7.50;;;5.07;;
12947;SDS011;6539;49.476;8.484;2023-03-21T07:59:11;7.67;;;4.83;;
12947;SDS011;6539;49.476;8.484;2023-03-21T08:01:39;11.60;;;4.87;;
12947;SDS011;6539;49.476;8.484;2023-03-21T08:04:05;6.43;;;4.47;;
12947;SDS011;6539;49.476;8.484;2023-03-21T08:06:32;6.43;;;4.37;;
12947;SDS011;6539;49.476;8.484;2023-03-21T08:08:58;9.70;;;4.83;;
12947;SDS011;6539;49.476;8.484;2023-03-21T08:11:24;8.30;;;3.90;;
12947;SDS011;6539;49.476;8.484;2023-03-21T08:13:51;7.97;;;4.40;;
12947;SDS011;6539;49.476;8.484;2023-03-21T08:16:18;7.57;;;4.67;;
12947;SDS011;6539;49.476;8.484;2023-03-21T08:18:44;7.77;;;4.10;;
12947;SDS011;6539;49.476;8.484;2023-03-21T08:21:10;7.17;;;4.77;;
12947;SDS011;6539;49.476;8.484;2023-03-21T08:23:36;5.73;;;4.50;;
12947;SDS011;6539;49.476;8.484;2023-03-21T08:26:02;6.33;;;4.80;;
12947;SDS011;6539;49.476;8.484;2023-03-21T08:28:27;9.80;;;4.37;;
12947;SDS011;6539;49.476;8.484;2023-03-21T08:30:56;6.80;;;4.87;;
12947;SDS011;6539;49.476;8.484;2023-03-21T08:33:21;6.80;;;4.23;;
12947;SDS011;6539;49.476;8.484;2023-03-21T08:35:52;6.67;;;4.37;;
12947;SDS011;6539;49.476;8.484;2023-03-21T08:38:18;7.30;;;4.60;;
12947;SDS011;6539;49.476;8.484;2023-03-21T08:40:46;7.97;;;4.17;;
12947;SDS011;6539;49.476;8.484;2023-03-21T08:43:14;8.07;;;4.87;;
12947;SDS011;6539;49.476;8.484;2023-03-21T08:45:42;8.47;;;4.47;;
12947;SDS011;6539;49.476;8.484;2023-03-21T08:48:12;8.23;;;4.60;;
12947;SDS011;6539;49.476;8.484;2023-03-21T08:50:38;5.23;;;4.30;;
12947;SDS011;6539;49.476;8.484;2023-03-21T08:53:04;5.13;;;3.90;;
12947;SDS011;6539;49.476;8.484;2023-03-21T08:55:30;5.33;;;4.43;;
12947;SDS011;6539;49.476;8.484;2023-03-21T08:57:57;7.13;;;4.50;;
12947;SDS011;6539;49.476;8.484;2023-03-21T09:00:26;9.23;;;5.13;;
12947;SDS011;6539;49.476;8.484;2023-03-21T09:02:52;6.07;;;4.63;;
12947;SDS011;6539;49.476;8.484;2023-03-21T09:05:20;5.27;;;4.77;;
12947;SDS011;6539;49.476;8.484;2023-03-21T09:07:46;7.03;;;4.50;;
12947;SDS011;6539;49.476;8.484;2023-03-21T09:10:17;5.70;;;4.60;;
12947;SDS011;6539;49.476;8.484;2023-03-21T09:12:45;8.07;;;4.67;;
12947;SDS011;6539;49.476;8.484;2023-03-21T09:15:12;6.07;;;4.70;;
12947;SDS011;6539;49.476;8.484;2023-03-21T09:17:42;6.43;;;4.53;;
12947;SDS011;6539;49.476;8.484;2023-03-21T09:20:13;6.83;;;5.03;;
12947;SDS011;6539;49.476;8.484;2023-03-21T09:22:49;6.17;;;5.20;;
12947;SDS011;6539;49.476;8.484;2023-03-21T09:25:18;7.70;;;4.70;;
12947;SDS011;6539;49.476;8.484;2023-03-21T09:27:48;8.73;;;4.63;;
12947;SDS011;6539;49.476;8.484;2023-03-21T09:30:18;8.27;;;4.60;;
12947;SDS011;6539;49.476;8.484;2023-03-21T09:32:49;7.57;;;4.20;;
12947;SDS011;6539;49.476;8.484;2023-03-21T09:35:17;7.93;;;4.83;;
12947;SDS011;6539;49.476;8.484;2023-03-21T09:37:44;10.10;;;4.60;;
12947;SDS011;6539;49.476;8.484;2023-03-21T09:45:48;6.43;;;4.07;;
12947;SDS011;6539;49.476;8.484;2023-03-21T09:48:25;5.83;;;4.10;;
12947;SDS011;6539;49.476;8.484;2023-03-21T09:51:21;8.23;;;4.30;;
12947;SDS011;6539;49.476;8.484;2023-03-21T09:53:53;7.40;;;3.90;;
12947;SDS011;6539;49.476;8.484;2023-03-21T09:56:24;9.03;;;4.07;;
12947;SDS011;6539;49.476;8.484;2023-03-21T09:58:51;5.90;;;3.77;;
12947;SDS011;6539;49.476;8.484;2023-03-21T10:01:26;7.23;;;4.40;;
12947;SDS011;6539;49.476;8.484;2023-03-21T10:03:59;6.63;;;3.93;;
12947;SDS011;6539;49.476;8.484;2023-03-21T10:06:36;6.00;;;3.37;;
12947;SDS011;6539;49.476;8.484;2023-03-21T10:09:12;5.27;;;3.73;;
12947;SDS011;6539;49.476;8.484;2023-03-21T10:11:55;5.67;;;3.57;;
12947;SDS011;6539;49.476;8.484;2023-03-21T10:14:29;8.03;;;4.20;;
12947;SDS011;6539;49.476;8.484;2023-03-21T10:17:19;4.90;;;3.30;;
12947;SDS011;6539;49.476;8.484;2023-03-21T10:22:48;6.77;;;3.80;;
12947;SDS011;6539;49.476;8.484;2023-03-21T10:25:45;5.77;;;4.27;;
12947;SDS011;6539;49.476;8.484;2023-03-21T10:28:21;6.13;;;3.63;;
12947;SDS011;6539;49.476;8.484;2023-03-21T10:31:01;5.57;;;3.60;;
12947;SDS011;6539;49.476;8.484;2023-03-21T10:33:37;4.33;;;3.80;;
12947;SDS011;6539;49.476;8.484;2023-03-21T10:36:13;4.17;;;3.50;;
12947;SDS011;6539;49.476;8.484;2023-03-21T10:38:45;6.43;;;3.70;;
12947;SDS011;6539;49.476;8.484;2023-03-21T10:41:14;5.80;;;3.80;;
12947;SDS011;6539;49.476;8.484;2023-03-21T10:43:40;6.20;;;3.60;;
12947;SDS011;6539;49.476;8.484;2023-03-21T10:46:16;5.00;;;3.70;;
12947;SDS011;6539;49.476;8.484;2023-03-21T10:48:46;4.53;;;3.47;;
12947;SDS011;6539;49.476;8.484;2023-03-21T10:51:27;7.37;;;4.03;;
12947;SDS011;6539;49.476;8.484;2023-03-21T10:54:02;5.90;;;3.97;;
12947;SDS011;6539;49.476;8.484;2023-03-21T10:56:43;7.63;;;4.17;;
12947;SDS011;6539;49.476;8.484;2023-03-21T10:59:37;5.17;;;3.83;;
12947;SDS011;6539;49.476;8.484;2023-03-21T11:02:15;6.07;;;3.73;;
12947;SDS011;6539;49.476;8.484;2023-03-21T11:04:49;5.07;;;4.10;;
12947;SDS011;6539;49.476;8.484;2023-03-21T11:07:20;4.80;;;3.77;;
12947;SDS011;6539;49.476;8.484;2023-03-21T11:12:28;5.57;;;3.60;;
12947;SDS011;6539;49.476;8.484;2023-03-21T11:15:50;6.97;;;3.93;;
12947;SDS011;6539;49.476;8.484;2023-03-21T11:18:29;4.47;;;3.97;;
12947;SDS011;6539;49.476;8.484;2023-03-21T11:21:06;5.17;;;4.10;;
12947;SDS011;6539;49.476;8.484;2023-03-21T11:23:41;6.23;;;4.20;;
12947;SDS011;6539;49.476;8.484;2023-03-21T11:26:19;9.00;;;4.10;;
12947;SDS011;6539;49.476;8.484;2023-03-21T11:28:54;5.97;;;4.27;;
12947;SDS011;6539;49.476;8.484;2023-03-21T11:31:21;7.87;;;4.10;;
12947;SDS011;6539;49.476;8.484;2023-03-21T11:34:01;5.37;;;3.97;;
12947;SDS011;6539;49.476;8.484;2023-03-21T11:36:50;5.00;;;4.30;;
12947;SDS011;6539;49.476;8.484;2023-03-21T11:39:32;5.67;;;3.80;;
12947;SDS011;6539;49.476;8.484;2023-03-21T11:42:04;9.20;;;4.13;;
12947;SDS011;6539;49.476;8.484;2023-03-21T11:44:49;9.60;;;4.57;;
12947;SDS011;6539;49.476;8.484;2023-03-21T11:47:28;6.40;;;3.93;;
12947;SDS011;6539;49.476;8.484;2023-03-21T11:49:55;4.83;;;3.83;;
12947;SDS011;6539;49.476;8.484;2023-03-21T11:52:30;5.23;;;3.20;;
12947;SDS011;6539;49.476;8.484;2023-03-21T11:55:22;6.17;;;3.87;;
12947;SDS011;6539;49.476;8.484;2023-03-21T12:06:55;5.30;;;3.37;;
12947;SDS011;6539;49.476;8.484;2023-03-21T12:09:45;5.63;;;3.63;;
12947;SDS011;6539;49.476;8.484;2023-03-21T12:21:29;3.63;;;3.30;;
12947;SDS011;6539;49.476;8.484;2023-03-21T12:24:20;5.73;;;3.63;;
12947;SDS011;6539;49.476;8.484;2023-03-21T12:33:29;6.07;;;3.60;;
12947;SDS011;6539;49.476;8.484;2023-03-21T12:38:43;5.77;;;2.80;;
12947;SDS011;6539;49.476;8.484;2023-03-21T12:42:09;4.47;;;3.13;;
12947;SDS011;6539;49.476;8.484;2023-03-21T12:48:16;4.63;;;2.77;;
12947;SDS011;6539;49.476;8.484;2023-03-21T12:51:13;4.00;;;2.97;;
12947;SDS011;6539;49.476;8.484;2023-03-21T12:53:51;5.03;;;3.37;;
12947;SDS011;6539;49.476;8.484;2023-03-21T12:59:11;4.93;;;2.97;;
12947;SDS011;6539;49.476;8.484;2023-03-21T13:07:50;4.57;;;3.00;;
12947;SDS011;6539;49.476;8.484;2023-03-21T13:10:44;6.77;;;3.27;;
12947;SDS011;6539;49.476;8.484;2023-03-21T13:16:38;3.23;;;2.93;;
12947;SDS011;6539;49.476;8.484;2023-03-21T13:22:20;3.37;;;3.03;;
12947;SDS011;6539;49.476;8.484;2023-03-21T13:25:24;3.23;;;2.70;;
12947;SDS011;6539;49.476;8.484;2023-03-21T13:27:53;3.97;;;2.60;;
12947;SDS011;6539;49.476;8.484;2023-03-21T13:30:27;5.07;;;3.23;;
12947;SDS011;6539;49.476;8.484;2023-03-21T13:33:03;6.30;;;2.90;;
12947;SDS011;6539;49.476;8.484;2023-03-21T13:38:09;5.80;;;3.23;;
12947;SDS011;6539;49.476;8.484;2023-03-21T13:40:49;4.83;;;3.00;;
12947;SDS011;6539;49.476;8.484;2023-03-21T13:46:50;4.80;;;2.97;;
12947;SDS011;6539;49.476;8.484;2023-03-21T13:49:35;3.97;;;3.13;;
12947;SDS011;6539;49.476;8.484;2023-03-21T13:52:23;3.97;;;3.37;;
12947;SDS011;6539;49.476;8.484;2023-03-21T14:00:19;6.90;;;3.87;;
12947;SDS011;6539;49.476;8.484;2023-03-21T14:05:25;4.13;;;3.50;;
12947;SDS011;6539;49.476;8.484;2023-03-21T14:07:55;5.20;;;3.60;;
12947;SDS011;6539;49.476;8.484;2023-03-21T14:10:29;4.43;;;3.53;;
12947;SDS011;6539;49.476;8.484;2023-03-21T14:13:14;4.23;;;3.90;;
12947;SDS011;6539;49.476;8.484;2023-03-21T14:15:53;4.20;;;3.80;;
12947;SDS011;6539;49.476;8.484;2023-03-21T14:18:28;5.10;;;3.67;;
12947;SDS011;6539;49.476;8.484;2023-03-21T14:20:56;5.30;;;4.00;;
12947;SDS011;6539;49.476;8.484;2023-03-21T14:23:24;5.87;;;3.87;;
12947;SDS011;6539;49.476;8.484;2023-03-21T14:25:52;4.60;;;3.70;;
12947;SDS011;6539;49.476;8.484;2023-03-21T14:28:25;6.37;;;3.50;;
12947;SDS011;6539;49.476;8.484;2023-03-21T14:30:59;4.47;;;3.27;;
12947;SDS011;6539;49.476;8.484;2023-03-21T14:33:39;3.50;;;3.20;;
12947;SDS011;6539;49.476;8.484;2023-03-21T14:36:14;4.00;;;3.60;;
12947;SDS011;6539;49.476;8.484;2023-03-21T14:38:53;5.03;;;3.83;;
12947;SDS011;6539;49.476;8.484;2023-03-21T14:41:31;3.90;;;3.50;;
12947;SDS011;6539;49.476;8.484;2023-03-21T14:46:43;10.80;;;7.73;;
12947;SDS011;6539;49.476;8.484;2023-03-21T14:49:12;4.03;;;3.60;;
12947;SDS011;6539;49.476;8.484;2023-03-21T14:51:57;5.07;;;3.63;;
12947;SDS011;6539;49.476;8.484;2023-03-21T14:54:27;7.73;;;5.50;;
12947;SDS011;6539;49.476;8.484;2023-03-21T14:57:04;5.00;;;3.30;;
12947;SDS011;6539;49.476;8.484;2023-03-21T14:59:37;2.93;;;2.50;;
12947;SDS011;6539;49.476;8.484;2023-03-21T15:02:25;6.93;;;3.50;;
12947;SDS011;6539;49.476;8.484;2023-03-21T15:05:06;4.97;;;3.10;;
12947;SDS011;6539;49.476;8.484;2023-03-21T15:07:38;3.37;;;2.80;;
12947;SDS011;6539;49.476;8.484;2023-03-21T15:10:12;4.37;;;3.07;;
12947;SDS011;6539;49.476;8.484;2023-03-21T15:12:48;5.93;;;3.77;;
12947;SDS011;6539;49.476;8.484;2023-03-21T15:15:19;5.87;;;4.17;;
12947;SDS011;6539;49.476;8.484;2023-03-21T15:17:48;3.50;;;3.20;;
12947;SDS011;6539;49.476;8.484;2023-03-21T15:20:17;5.13;;;3.40;;
12947;SDS011;6539;49.476;8.484;2023-03-21T15:22:50;6.63;;;3.90;;
12947;SDS011;6539;49.476;8.484;2023-03-21T15:25:24;5.30;;;4.10;;
12947;SDS011;6539;49.476;8.484;2023-03-21T15:27:56;3.63;;;3.17;;
12947;SDS011;6539;49.476;8.484;2023-03-21T15:30:24;5.33;;;3.20;;
12947;SDS011;6539;49.476;8.484;2023-03-21T15:32:54;5.00;;;3.33;;
12947;SDS011;6539;49.476;8.484;2023-03-21T15:35:25;4.27;;;3.40;;
12947;SDS011;6539;49.476;8.484;2023-03-21T15:37:58;4.53;;;3.50;;
12947;SDS011;6539;49.476;8.484;2023-03-21T15:40:30;7.47;;;4.10;;
12947;SDS011;6539;49.476;8.484;2023-03-21T15:43:14;4.67;;;3.47;;
12947;SDS011;6539;49.476;8.484;2023-03-21T15:45:47;4.90;;;2.97;;
12947;SDS011;6539;49.476;8.484;2023-03-21T15:48:15;3.63;;;3.13;;
12947;SDS011;6539;49.476;8.484;2023-03-21T15:50:58;6.23;;;3.83;;
12947;SDS011;6539;49.476;8.484;2023-03-21T15:53:35;6.70;;;3.70;;
12947;SDS011;6539;49.476;8.484;2023-03-21T15:56:09;5.10;;;3.80;;
12947;SDS011;6539;49.476;8.484;2023-03-21T15:58:42;6.60;;;3.70;;
12947;SDS011;6539;49.476;8.484;2023-03-21T16:01:13;6.90;;;4.00;;
12947;SDS011;6539;49.476;8.484;2023-03-21T16:04:07;5.33;;;3.73;;
12947;SDS011;6539;49.476;8.484;2023-03-21T16:09:42;6.20;;;3.80;;
12947;SDS011;6539;49.476;8.484;2023-03-21T16:12:13;7.70;;;4.03;;
12947;SDS011;6539;49.476;8.484;2023-03-21T16:14:39;5.70;;;4.17;;
12947;SDS011;6539;49.476;8.484;2023-03-21T16:17:30;5.40;;;3.93;;
12947;SDS011;6539;49.476;8.484;2023-03-21T16:20:01;5.73;;;4.57;;
12947;SDS011;6539;49.476;8.484;2023-03-21T16:22:43;6.17;;;3.97;;
12947;SDS011;6539;49.476;8.484;2023-03-21T16:25:08;6.70;;;4.10;;
12947;SDS011;6539;49.476;8.484;2023-03-21T16:27:34;6.30;;;5.27;;
12947;SDS011;6539;49.476;8.484;2023-03-21T16:30:00;6.67;;;4.77;;
12947;SDS011;6539;49.476;8.484;2023-03-21T16:32:30;5.67;;;4.57;;
12947;SDS011;6539;49.476;8.484;2023-03-21T16:34:56;4.77;;;4.20;;
12947;SDS011;6539;49.476;8.484;2023-03-21T16:37:22;6.73;;;4.23;;
12947;SDS011;6539;49.476;8.484;2023-03-21T16:39:48;7.20;;;4.80;;
12947;SDS011;6539;49.476;8.484;2023-03-21T16:42:16;8.53;;;4.40;;
12947;SDS011;6539;49.476;8.484;2023-03-21T16:44:42;6.77;;;4.37;;
12947;SDS011;6539;49.476;8.484;2023-03-21T16:47:28;6.10;;;3.97;;
12947;SDS011;6539;49.476;8.484;2023-03-21T16:49:53;4.93;;;4.43;;
12947;SDS011;6539;49.476;8.484;2023-03-21T16:52:19;6.80;;;4.50;;
12947;SDS011;6539;49.476;8.484;2023-03-21T16:54:45;5.70;;;4.00;;
12947;SDS011;6539;49.476;8.484;2023-03-21T16:57:18;5.60;;;3.70;;
12947;SDS011;6539;49.476;8.484;2023-03-21T16:59:53;7.87;;;4.50;;
12947;SDS011;6539;49.476;8.484;2023-03-21T17:02:20;4.87;;;3.60;;
12947;SDS011;6539;49.476;8.484;2023-03-21T17:04:50;4.30;;;3.37;;
12947;SDS011;6539;49.476;8.484;2023-03-21T17:07:19;6.93;;;3.77;;
12947;SDS011;6539;49.476;8.484;2023-03-21T17:09:44;5.40;;;4.13;;
12947;SDS011;6539;49.476;8.484;2023-03-21T17:12:13;6.33;;;4.60;;
12947;SDS011;6539;49.476;8.484;2023-03-21T17:14:43;6.50;;;4.97;;
12947;SDS011;6539;49.476;8.484;2023-03-21T17:17:13;5.13;;;3.60;;
12947;SDS011;6539;49.476;8.484;2023-03-21T17:19:43;6.37;;;4.03;;
12947;SDS011;6539;49.476;8.484;2023-03-21T17:22:11;7.13;;;4.57;;
12947;SDS011;6539;49.476;8.484;2023-03-21T17:24:37;7.70;;;5.90;;
12947;SDS011;6539;49.476;8.484;2023-03-21T17:27:03;8.40;;;4.97;;